sensor_id;sensor_type;location;lat;lon;timestamp;P1;durP1;ratioP1;P2;durP2;ratioP2
9094;SDS011;4583;49.796;9.902;2023-10-31T00:05:33;1.90;;;1.43;;
9094;SDS011;4583;49.796;9.902;2023-10-31T00:21:28;3.10;;;1.30;;
9094;SDS011;4583;49.796;9.902;2023-10-31T00:31:31;2.57;;;1.00;;
9094;SDS011;4583;49.796;9.902;2023-10-31T00:41:35;1.80;;;0.90;;
9094;SDS011;4583;49.796;9.902;2023-10-31T00:51:38;4.00;;;0.80;;
9094;SDS011;4583;49.796;9.902;2023-10-31T01:01:40;0.87;;;0.80;;
9094;SDS011;4583;49.796;9.902;2023-10-31T01:11:42;0.93;;;0.90;;
9094;SDS011;4583;49.796;9.902;2023-10-31T01:21:44;1.33;;;0.90;;
9094;SDS011;4583;49.796;9.902;2023-10-31T01:37:40;1.53;;;1.00;;
9094;SDS011;4583;49.796;9.902;2023-10-31T01:47:42;5.83;;;1.00;;
9094;SDS011;4583;49.796;9.902;2023-10-31T01:57:45;1.13;;;1.00;;
9094;SDS011;4583;49.796;9.902;2023-10-31T02:07:47;1.90;;;1.10;;
9094;SDS011;4583;49.796;9.902;2023-10-31T02:17:50;3.10;;;0.90;;
9094;SDS011;4583;49.796;9.902;2023-10-31T02:27:52;1.30;;;0.90;;
9094;SDS011;4583;49.796;9.902;2023-10-31T02:37:54;1.00;;;0.87;;
9094;SDS011;4583;49.796;9.902;2023-10-31T02:47:56;0.87;;;0.87;;
9094;SDS011;4583;49.796;9.902;2023-10-31T02:57:58;2.20;;;0.70;;
9094;SDS011;4583;49.796;9.902;2023-10-31T03:08:00;1.10;;;0.90;;
9094;SDS011;4583;49.796;9.902;2023-10-31T03:18:03;1.47;;;1.10;;
9094;SDS011;4583;49.796;9.902;2023-10-31T03:28:07;1.00;;;0.90;;
9094;SDS011;4583;49.796;9.902;2023-10-31T03:38:19;0.80;;;0.80;;
9094;SDS011;4583;49.796;9.902;2023-10-31T03:48:21;1.13;;;1.03;;
9094;SDS011;4583;49.796;9.902;2023-10-31T03:58:23;3.60;;;1.00;;
9094;SDS011;4583;49.796;9.902;2023-10-31T04:08:25;1.97;;;1.13;;
9094;SDS011;4583;49.796;9.902;2023-10-31T04:18:28;3.57;;;0.90;;
9094;SDS011;4583;49.796;9.902;2023-10-31T04:28:30;1.63;;;1.50;;
9094;SDS011;4583;49.796;9.902;2023-10-31T04:38:32;3.80;;;2.80;;
9094;SDS011;4583;49.796;9.902;2023-10-31T04:48:34;4.20;;;1.83;;
9094;SDS011;4583;49.796;9.902;2023-10-31T04:58:36;4.47;;;1.83;;
9094;SDS011;4583;49.796;9.902;2023-10-31T05:08:38;5.93;;;1.20;;
9094;SDS011;4583;49.796;9.902;2023-10-31T05:18:41;4.43;;;1.07;;
9094;SDS011;4583;49.796;9.902;2023-10-31T05:28:43;2.93;;;1.10;;
9094;SDS011;4583;49.796;9.902;2023-10-31T05:38:45;1.90;;;1.53;;
9094;SDS011;4583;49.796;9.902;2023-10-31T05:48:48;4.40;;;2.17;;
9094;SDS011;4583;49.796;9.902;2023-10-31T05:58:50;1.20;;;1.10;;
9094;SDS011;4583;49.796;9.902;2023-10-31T06:08:52;1.10;;;1.00;;
9094;SDS011;4583;49.796;9.902;2023-10-31T06:18:54;1.60;;;1.40;;
9094;SDS011;4583;49.796;9.902;2023-10-31T06:28:56;1.67;;;1.20;;
9094;SDS011;4583;49.796;9.902;2023-10-31T06:39:18;1.20;;;1.10;;
9094;SDS011;4583;49.796;9.902;2023-10-31T06:49:21;1.93;;;0.93;;
9094;SDS011;4583;49.796;9.902;2023-10-31T06:59:25;1.63;;;1.10;;
9094;SDS011;4583;49.796;9.902;2023-10-31T07:09:27;2.17;;;1.13;;
9094;SDS011;4583;49.796;9.902;2023-10-31T07:19:29;2.77;;;1.03;;
9094;SDS011;4583;49.796;9.902;2023-10-31T07:29:31;3.50;;;1.13;;
9094;SDS011;4583;49.796;9.902;2023-10-31T07:42:03;1.23;;;0.90;;
9094;SDS011;4583;49.796;9.902;2023-10-31T07:52:05;3.37;;;0.80;;
9094;SDS011;4583;49.796;9.902;2023-10-31T08:02:07;1.50;;;1.13;;
9094;SDS011;4583;49.796;9.902;2023-10-31T08:12:10;1.90;;;1.30;;
9094;SDS011;4583;49.796;9.902;2023-10-31T08:22:12;2.33;;;1.17;;
9094;SDS011;4583;49.796;9.902;2023-10-31T08:32:14;1.40;;;1.10;;
9094;SDS011;4583;49.796;9.902;2023-10-31T08:42:17;2.20;;;1.10;;
9094;SDS011;4583;49.796;9.902;2023-10-31T08:52:19;2.60;;;1.10;;
9094;SDS011;4583;49.796;9.902;2023-10-31T09:02:23;1.60;;;1.13;;
9094;SDS011;4583;49.796;9.902;2023-10-31T09:12:25;1.20;;;1.10;;
9094;SDS011;4583;49.796;9.902;2023-10-31T09:22:29;1.27;;;0.97;;
9094;SDS011;4583;49.796;9.902;2023-10-31T09:32:31;0.90;;;0.90;;
9094;SDS011;4583;49.796;9.902;2023-10-31T09:42:34;2.77;;;1.20;;
9094;SDS011;4583;49.796;9.902;2023-10-31T09:52:36;1.40;;;1.10;;
9094;SDS011;4583;49.796;9.902;2023-10-31T10:02:38;1.10;;;1.00;;
9094;SDS011;4583;49.796;9.902;2023-10-31T10:12:41;1.23;;;1.00;;
9094;SDS011;4583;49.796;9.902;2023-10-31T10:22:45;2.53;;;1.47;;
9094;SDS011;4583;49.796;9.902;2023-10-31T10:32:49;1.30;;;1.20;;
9094;SDS011;4583;49.796;9.902;2023-10-31T10:42:52;1.80;;;1.20;;
9094;SDS011;4583;49.796;9.902;2023-10-31T10:53:14;2.07;;;1.33;;
9094;SDS011;4583;49.796;9.902;2023-10-31T11:03:19;2.03;;;1.30;;
9094;SDS011;4583;49.796;9.902;2023-10-31T11:13:22;3.50;;;1.47;;
9094;SDS011;4583;49.796;9.902;2023-10-31T11:23:26;3.63;;;1.47;;
9094;SDS011;4583;49.796;9.902;2023-10-31T11:33:29;4.03;;;1.30;;
9094;SDS011;4583;49.796;9.902;2023-10-31T11:43:36;4.90;;;1.50;;
9094;SDS011;4583;49.796;9.902;2023-10-31T11:53:38;4.57;;;1.90;;
9094;SDS011;4583;49.796;9.902;2023-10-31T12:03:42;1.87;;;1.20;;
9094;SDS011;4583;49.796;9.902;2023-10-31T12:13:57;3.13;;;1.27;;
9094;SDS011;4583;49.796;9.902;2023-10-31T12:24:02;2.77;;;1.17;;
9094;SDS011;4583;49.796;9.902;2023-10-31T12:34:05;4.77;;;1.07;;
9094;SDS011;4583;49.796;9.902;2023-10-31T12:44:07;3.37;;;1.40;;
9094;SDS011;4583;49.796;9.902;2023-10-31T12:54:11;4.93;;;3.03;;
9094;SDS011;4583;49.796;9.902;2023-10-31T13:04:23;4.07;;;2.50;;
9094;SDS011;4583;49.796;9.902;2023-10-31T13:14:27;2.93;;;1.13;;
9094;SDS011;4583;49.796;9.902;2023-10-31T13:24:29;6.83;;;1.50;;
9094;SDS011;4583;49.796;9.902;2023-10-31T13:34:32;5.00;;;1.20;;
9094;SDS011;4583;49.796;9.902;2023-10-31T13:44:34;6.93;;;1.20;;
9094;SDS011;4583;49.796;9.902;2023-10-31T13:54:36;3.70;;;1.20;;
9094;SDS011;4583;49.796;9.902;2023-10-31T14:04:38;3.87;;;1.20;;
9094;SDS011;4583;49.796;9.902;2023-10-31T14:14:41;3.07;;;1.60;;
9094;SDS011;4583;49.796;9.902;2023-10-31T14:24:43;7.90;;;1.87;;
9094;SDS011;4583;49.796;9.902;2023-10-31T14:34:45;1.77;;;1.20;;
9094;SDS011;4583;49.796;9.902;2023-10-31T14:44:48;4.83;;;1.57;;
9094;SDS011;4583;49.796;9.902;2023-10-31T14:54:50;4.50;;;1.37;;
9094;SDS011;4583;49.796;9.902;2023-10-31T15:04:52;4.17;;;1.57;;
9094;SDS011;4583;49.796;9.902;2023-10-31T15:14:54;5.63;;;1.60;;
9094;SDS011;4583;49.796;9.902;2023-10-31T15:24:57;3.13;;;1.50;;
9094;SDS011;4583;49.796;9.902;2023-10-31T15:34:59;6.33;;;1.40;;
9094;SDS011;4583;49.796;9.902;2023-10-31T15:45:01;2.37;;;1.47;;
9094;SDS011;4583;49.796;9.902;2023-10-31T15:55:04;3.07;;;1.40;;
9094;SDS011;4583;49.796;9.902;2023-10-31T16:05:06;3.50;;;1.70;;
9094;SDS011;4583;49.796;9.902;2023-10-31T16:15:09;6.83;;;2.10;;
9094;SDS011;4583;49.796;9.902;2023-10-31T16:25:12;7.47;;;2.83;;
9094;SDS011;4583;49.796;9.902;2023-10-31T16:35:15;4.67;;;2.80;;
9094;SDS011;4583;49.796;9.902;2023-10-31T16:45:17;7.43;;;2.10;;
9094;SDS011;4583;49.796;9.902;2023-10-31T16:55:19;2.90;;;1.80;;
9094;SDS011;4583;49.796;9.902;2023-10-31T17:05:21;4.50;;;2.10;;
9094;SDS011;4583;49.796;9.902;2023-10-31T17:15:25;3.60;;;1.90;;
9094;SDS011;4583;49.796;9.902;2023-10-31T17:25:27;5.17;;;2.07;;
9094;SDS011;4583;49.796;9.902;2023-10-31T17:35:29;7.37;;;2.10;;
9094;SDS011;4583;49.796;9.902;2023-10-31T17:45:31;4.40;;;1.90;;
9094;SDS011;4583;49.796;9.902;2023-10-31T17:55:33;3.60;;;2.00;;
9094;SDS011;4583;49.796;9.902;2023-10-31T18:05:35;2.60;;;1.70;;
9094;SDS011;4583;49.796;9.902;2023-10-31T18:15:38;3.60;;;1.73;;
9094;SDS011;4583;49.796;9.902;2023-10-31T18:25:40;3.37;;;2.07;;
9094;SDS011;4583;49.796;9.902;2023-10-31T18:35:42;6.63;;;2.30;;
9094;SDS011;4583;49.796;9.902;2023-10-31T18:45:45;2.73;;;1.80;;
9094;SDS011;4583;49.796;9.902;2023-10-31T18:55:47;6.33;;;2.93;;
9094;SDS011;4583;49.796;9.902;2023-10-31T19:05:49;4.43;;;1.63;;
9094;SDS011;4583;49.796;9.902;2023-10-31T19:15:51;3.50;;;1.40;;
9094;SDS011;4583;49.796;9.902;2023-10-31T19:25:53;2.53;;;1.80;;
9094;SDS011;4583;49.796;9.902;2023-10-31T19:35:55;3.20;;;1.40;;
9094;SDS011;4583;49.796;9.902;2023-10-31T19:45:57;2.93;;;1.73;;
9094;SDS011;4583;49.796;9.902;2023-10-31T19:56:03;5.17;;;1.90;;
9094;SDS011;4583;49.796;9.902;2023-10-31T20:06:06;2.10;;;1.60;;
9094;SDS011;4583;49.796;9.902;2023-10-31T20:16:09;3.57;;;2.30;;
9094;SDS011;4583;49.796;9.902;2023-10-31T20:26:15;2.53;;;1.60;;
9094;SDS011;4583;49.796;9.902;2023-10-31T20:36:19;4.77;;;2.20;;
9094;SDS011;4583;49.796;9.902;2023-10-31T20:46:21;5.03;;;1.60;;
9094;SDS011;4583;49.796;9.902;2023-10-31T20:56:26;3.83;;;1.70;;
9094;SDS011;4583;49.796;9.902;2023-10-31T21:06:28;3.43;;;1.87;;
9094;SDS011;4583;49.796;9.902;2023-10-31T21:16:33;4.50;;;2.00;;
9094;SDS011;4583;49.796;9.902;2023-10-31T21:26:36;2.03;;;1.43;;
9094;SDS011;4583;49.796;9.902;2023-10-31T21:36:38;3.43;;;1.70;;
9094;SDS011;4583;49.796;9.902;2023-10-31T21:46:40;3.63;;;1.67;;
9094;SDS011;4583;49.796;9.902;2023-10-31T21:56:45;2.57;;;1.60;;
9094;SDS011;4583;49.796;9.902;2023-10-31T22:06:47;3.13;;;1.80;;
9094;SDS011;4583;49.796;9.902;2023-10-31T22:16:49;2.67;;;1.63;;
9094;SDS011;4583;49.796;9.902;2023-10-31T22:26:54;3.17;;;1.97;;
9094;SDS011;4583;49.796;9.902;2023-10-31T22:36:56;3.03;;;1.80;;
9094;SDS011;4583;49.796;9.902;2023-10-31T22:46:58;3.70;;;1.90;;
9094;SDS011;4583;49.796;9.902;2023-10-31T22:57:00;5.10;;;1.97;;
9094;SDS011;4583;49.796;9.902;2023-10-31T23:07:02;6.13;;;1.73;;
9094;SDS011;4583;49.796;9.902;2023-10-31T23:17:05;1.73;;;1.60;;
9094;SDS011;4583;49.796;9.902;2023-10-31T23:27:07;3.73;;;1.80;;
9094;SDS011;4583;49.796;9.902;2023-10-31T23:37:09;4.43;;;2.00;;
9094;SDS011;4583;49.796;9.902;2023-10-31T23:47:11;4.97;;;1.90;;
